sensor_id;sensor_type;location;lat;lon;timestamp;P1;durP1;ratioP1;P2;durP2;ratioP2
17091;SDS011;8661;45.700;4.880;2023-03-04T00:02:20;48.10;;;28.27;;
17091;SDS011;8661;45.700;4.880;2023-03-04T00:04:47;45.83;;;27.53;;
17091;SDS011;8661;45.700;4.880;2023-03-04T00:07:14;45.10;;;27.23;;
17091;SDS011;8661;45.700;4.880;2023-03-04T00:09:43;46.97;;;28.87;;
17091;SDS011;8661;45.700;4.880;2023-03-04T00:12:12;46.43;;;26.33;;
17091;SDS011;8661;45.700;4.880;2023-03-04T00:14:39;47.33;;;26.20;;
17091;SDS011;8661;45.700;4.880;2023-03-04T00:17:06;43.63;;;25.33;;
17091;SDS011;8661;45.700;4.880;2023-03-04T00:19:33;43.27;;;24.33;;
17091;SDS011;8661;45.700;4.880;2023-03-04T00:22:00;52.67;;;27.53;;
17091;SDS011;8661;45.700;4.880;2023-03-04T00:24:28;43.17;;;26.00;;
17091;SDS011;8661;45.700;4.880;2023-03-04T00:26:55;41.63;;;25.03;;
17091;SDS011;8661;45.700;4.880;2023-03-04T00:29:23;46.50;;;26.87;;
17091;SDS011;8661;45.700;4.880;2023-03-04T00:31:50;44.30;;;25.27;;
17091;SDS011;8661;45.700;4.880;2023-03-04T00:34:17;44.63;;;26.17;;
17091;SDS011;8661;45.700;4.880;2023-03-04T00:36:44;46.77;;;27.93;;
17091;SDS011;8661;45.700;4.880;2023-03-04T00:39:11;45.13;;;25.63;;
17091;SDS011;8661;45.700;4.880;2023-03-04T00:41:38;45.00;;;26.27;;
17091;SDS011;8661;45.700;4.880;2023-03-04T00:44:05;50.73;;;26.17;;
17091;SDS011;8661;45.700;4.880;2023-03-04T00:46:33;47.27;;;26.67;;
17091;SDS011;8661;45.700;4.880;2023-03-04T00:49:00;44.17;;;26.07;;
17091;SDS011;8661;45.700;4.880;2023-03-04T00:51:27;45.60;;;25.73;;
17091;SDS011;8661;45.700;4.880;2023-03-04T00:53:54;49.07;;;27.90;;
17091;SDS011;8661;45.700;4.880;2023-03-04T00:56:21;46.10;;;26.30;;
17091;SDS011;8661;45.700;4.880;2023-03-04T00:58:48;45.27;;;26.67;;
17091;SDS011;8661;45.700;4.880;2023-03-04T01:01:15;47.00;;;27.60;;
17091;SDS011;8661;45.700;4.880;2023-03-04T01:03:43;47.33;;;27.97;;
17091;SDS011;8661;45.700;4.880;2023-03-04T01:06:10;47.00;;;27.07;;
17091;SDS011;8661;45.700;4.880;2023-03-04T01:08:37;51.80;;;27.90;;
17091;SDS011;8661;45.700;4.880;2023-03-04T01:11:04;47.77;;;27.50;;
17091;SDS011;8661;45.700;4.880;2023-03-04T01:13:32;45.27;;;26.10;;
17091;SDS011;8661;45.700;4.880;2023-03-04T01:15:59;43.17;;;25.90;;
17091;SDS011;8661;45.700;4.880;2023-03-04T01:18:27;46.33;;;26.00;;
17091;SDS011;8661;45.700;4.880;2023-03-04T01:20:55;47.97;;;27.77;;
17091;SDS011;8661;45.700;4.880;2023-03-04T01:23:22;45.97;;;28.30;;
17091;SDS011;8661;45.700;4.880;2023-03-04T01:25:49;46.47;;;26.27;;
17091;SDS011;8661;45.700;4.880;2023-03-04T01:28:16;46.93;;;27.00;;
17091;SDS011;8661;45.700;4.880;2023-03-04T01:30:43;46.57;;;27.93;;
17091;SDS011;8661;45.700;4.880;2023-03-04T01:33:10;47.37;;;27.57;;
17091;SDS011;8661;45.700;4.880;2023-03-04T01:35:37;46.83;;;26.07;;
17091;SDS011;8661;45.700;4.880;2023-03-04T01:38:05;48.07;;;28.13;;
17091;SDS011;8661;45.700;4.880;2023-03-04T01:40:32;46.53;;;27.20;;
17091;SDS011;8661;45.700;4.880;2023-03-04T01:42:59;46.60;;;26.73;;
17091;SDS011;8661;45.700;4.880;2023-03-04T01:45:26;44.20;;;26.87;;
17091;SDS011;8661;45.700;4.880;2023-03-04T01:47:53;47.37;;;26.30;;
17091;SDS011;8661;45.700;4.880;2023-03-04T01:50:21;50.03;;;27.33;;
17091;SDS011;8661;45.700;4.880;2023-03-04T01:52:52;49.57;;;27.53;;
17091;SDS011;8661;45.700;4.880;2023-03-04T01:55:22;44.57;;;26.93;;
17091;SDS011;8661;45.700;4.880;2023-03-04T01:57:50;47.33;;;26.17;;
17091;SDS011;8661;45.700;4.880;2023-03-04T02:00:20;48.00;;;27.87;;
17091;SDS011;8661;45.700;4.880;2023-03-04T02:02:56;44.00;;;27.40;;
17091;SDS011;8661;45.700;4.880;2023-03-04T02:05:25;44.73;;;26.57;;
17091;SDS011;8661;45.700;4.880;2023-03-04T02:07:53;46.20;;;27.23;;
17091;SDS011;8661;45.700;4.880;2023-03-04T02:10:23;49.17;;;26.80;;
17091;SDS011;8661;45.700;4.880;2023-03-04T02:12:51;49.47;;;28.23;;
17091;SDS011;8661;45.700;4.880;2023-03-04T02:15:18;46.83;;;27.17;;
17091;SDS011;8661;45.700;4.880;2023-03-04T02:17:48;44.60;;;27.03;;
17091;SDS011;8661;45.700;4.880;2023-03-04T02:20:22;46.17;;;28.17;;
17091;SDS011;8661;45.700;4.880;2023-03-04T02:22:59;47.60;;;27.67;;
17091;SDS011;8661;45.700;4.880;2023-03-04T02:25:34;45.60;;;27.97;;
17091;SDS011;8661;45.700;4.880;2023-03-04T02:28:09;48.47;;;27.30;;
17091;SDS011;8661;45.700;4.880;2023-03-04T02:30:36;52.00;;;28.00;;
17091;SDS011;8661;45.700;4.880;2023-03-04T02:33:03;52.87;;;28.17;;
17091;SDS011;8661;45.700;4.880;2023-03-04T02:35:30;54.87;;;29.50;;
17091;SDS011;8661;45.700;4.880;2023-03-04T02:37:57;49.07;;;27.93;;
17091;SDS011;8661;45.700;4.880;2023-03-04T02:40:25;46.90;;;26.23;;
17091;SDS011;8661;45.700;4.880;2023-03-04T02:42:54;46.17;;;27.53;;
17091;SDS011;8661;45.700;4.880;2023-03-04T02:45:35;48.00;;;28.23;;
17091;SDS011;8661;45.700;4.880;2023-03-04T02:48:05;45.87;;;27.50;;
17091;SDS011;8661;45.700;4.880;2023-03-04T02:50:33;49.30;;;27.00;;
17091;SDS011;8661;45.700;4.880;2023-03-04T02:53:02;48.40;;;27.80;;
17091;SDS011;8661;45.700;4.880;2023-03-04T02:55:30;48.30;;;28.97;;
17091;SDS011;8661;45.700;4.880;2023-03-04T02:57:57;48.37;;;27.77;;
17091;SDS011;8661;45.700;4.880;2023-03-04T03:00:24;47.50;;;27.57;;
17091;SDS011;8661;45.700;4.880;2023-03-04T03:02:53;51.43;;;29.63;;
17091;SDS011;8661;45.700;4.880;2023-03-04T03:05:21;50.03;;;28.90;;
17091;SDS011;8661;45.700;4.880;2023-03-04T03:07:49;47.70;;;27.60;;
17091;SDS011;8661;45.700;4.880;2023-03-04T03:10:16;49.33;;;29.03;;
17091;SDS011;8661;45.700;4.880;2023-03-04T03:12:44;51.63;;;27.83;;
17091;SDS011;8661;45.700;4.880;2023-03-04T03:15:11;47.30;;;27.67;;
17091;SDS011;8661;45.700;4.880;2023-03-04T03:17:38;52.57;;;29.37;;
17091;SDS011;8661;45.700;4.880;2023-03-04T03:20:07;50.13;;;27.90;;
17091;SDS011;8661;45.700;4.880;2023-03-04T03:22:35;48.00;;;27.57;;
17091;SDS011;8661;45.700;4.880;2023-03-04T03:25:02;48.60;;;28.93;;
17091;SDS011;8661;45.700;4.880;2023-03-04T03:27:30;49.23;;;28.43;;
17091;SDS011;8661;45.700;4.880;2023-03-04T03:29:57;52.17;;;29.20;;
17091;SDS011;8661;45.700;4.880;2023-03-04T03:32:24;52.27;;;28.13;;
17091;SDS011;8661;45.700;4.880;2023-03-04T03:34:51;45.90;;;27.17;;
17091;SDS011;8661;45.700;4.880;2023-03-04T03:37:20;53.00;;;28.07;;
17091;SDS011;8661;45.700;4.880;2023-03-04T03:39:46;51.20;;;28.80;;
17091;SDS011;8661;45.700;4.880;2023-03-04T03:42:13;49.63;;;29.27;;
17091;SDS011;8661;45.700;4.880;2023-03-04T03:44:40;50.37;;;28.00;;
17091;SDS011;8661;45.700;4.880;2023-03-04T03:47:07;46.80;;;26.93;;
17091;SDS011;8661;45.700;4.880;2023-03-04T03:49:34;53.87;;;28.40;;
17091;SDS011;8661;45.700;4.880;2023-03-04T03:52:01;46.50;;;28.00;;
17091;SDS011;8661;45.700;4.880;2023-03-04T03:54:29;52.00;;;28.73;;
17091;SDS011;8661;45.700;4.880;2023-03-04T03:56:56;49.13;;;28.53;;
17091;SDS011;8661;45.700;4.880;2023-03-04T03:59:23;49.40;;;28.13;;
17091;SDS011;8661;45.700;4.880;2023-03-04T04:01:50;51.77;;;27.87;;
17091;SDS011;8661;45.700;4.880;2023-03-04T04:04:17;49.70;;;28.00;;
17091;SDS011;8661;45.700;4.880;2023-03-04T04:06:43;50.73;;;28.80;;
17091;SDS011;8661;45.700;4.880;2023-03-04T04:09:10;46.37;;;27.47;;
17091;SDS011;8661;45.700;4.880;2023-03-04T04:11:39;50.10;;;27.33;;
17091;SDS011;8661;45.700;4.880;2023-03-04T04:14:05;48.07;;;27.57;;
17091;SDS011;8661;45.700;4.880;2023-03-04T04:16:34;50.80;;;27.90;;
17091;SDS011;8661;45.700;4.880;2023-03-04T04:19:00;49.23;;;27.83;;
17091;SDS011;8661;45.700;4.880;2023-03-04T04:21:27;48.03;;;26.53;;
17091;SDS011;8661;45.700;4.880;2023-03-04T04:23:54;45.57;;;27.37;;
17091;SDS011;8661;45.700;4.880;2023-03-04T04:26:21;47.63;;;28.10;;
17091;SDS011;8661;45.700;4.880;2023-03-04T04:28:49;48.83;;;27.30;;
17091;SDS011;8661;45.700;4.880;2023-03-04T04:31:16;52.07;;;27.33;;
17091;SDS011;8661;45.700;4.880;2023-03-04T04:33:43;50.20;;;28.17;;
17091;SDS011;8661;45.700;4.880;2023-03-04T04:36:11;51.80;;;27.40;;
17091;SDS011;8661;45.700;4.880;2023-03-04T04:38:39;48.43;;;28.10;;
17091;SDS011;8661;45.700;4.880;2023-03-04T04:41:08;47.97;;;28.33;;
17091;SDS011;8661;45.700;4.880;2023-03-04T04:43:43;49.57;;;28.43;;
17091;SDS011;8661;45.700;4.880;2023-03-04T04:46:11;50.83;;;27.80;;
17091;SDS011;8661;45.700;4.880;2023-03-04T04:48:38;47.60;;;27.20;;
17091;SDS011;8661;45.700;4.880;2023-03-04T04:51:05;46.13;;;26.57;;
17091;SDS011;8661;45.700;4.880;2023-03-04T04:53:32;45.90;;;27.00;;
17091;SDS011;8661;45.700;4.880;2023-03-04T04:55:59;46.83;;;27.27;;
17091;SDS011;8661;45.700;4.880;2023-03-04T04:58:32;47.53;;;27.93;;
17091;SDS011;8661;45.700;4.880;2023-03-04T05:00:59;47.03;;;27.00;;
17091;SDS011;8661;45.700;4.880;2023-03-04T05:03:28;47.63;;;27.83;;
17091;SDS011;8661;45.700;4.880;2023-03-04T05:05:54;49.90;;;28.93;;
17091;SDS011;8661;45.700;4.880;2023-03-04T05:08:22;51.13;;;28.40;;
17091;SDS011;8661;45.700;4.880;2023-03-04T05:10:48;45.53;;;27.40;;
17091;SDS011;8661;45.700;4.880;2023-03-04T05:13:15;46.03;;;27.27;;
17091;SDS011;8661;45.700;4.880;2023-03-04T05:15:43;45.20;;;26.83;;
17091;SDS011;8661;45.700;4.880;2023-03-04T05:18:10;48.03;;;25.50;;
17091;SDS011;8661;45.700;4.880;2023-03-04T05:20:38;48.17;;;26.37;;
17091;SDS011;8661;45.700;4.880;2023-03-04T05:23:05;50.07;;;26.87;;
17091;SDS011;8661;45.700;4.880;2023-03-04T05:25:32;47.53;;;27.90;;
17091;SDS011;8661;45.700;4.880;2023-03-04T05:27:59;45.93;;;26.83;;
17091;SDS011;8661;45.700;4.880;2023-03-04T05:30:26;46.43;;;26.73;;
17091;SDS011;8661;45.700;4.880;2023-03-04T05:32:53;47.77;;;27.67;;
17091;SDS011;8661;45.700;4.880;2023-03-04T05:35:20;45.73;;;26.97;;
17091;SDS011;8661;45.700;4.880;2023-03-04T05:37:48;49.30;;;27.13;;
17091;SDS011;8661;45.700;4.880;2023-03-04T05:40:15;46.37;;;25.70;;
17091;SDS011;8661;45.700;4.880;2023-03-04T05:42:42;46.10;;;25.73;;
17091;SDS011;8661;45.700;4.880;2023-03-04T05:45:09;51.17;;;27.07;;
17091;SDS011;8661;45.700;4.880;2023-03-04T05:47:37;42.13;;;26.43;;
17091;SDS011;8661;45.700;4.880;2023-03-04T05:50:04;50.73;;;25.80;;
17091;SDS011;8661;45.700;4.880;2023-03-04T05:52:31;52.20;;;26.80;;
17091;SDS011;8661;45.700;4.880;2023-03-04T05:55:00;46.13;;;26.20;;
17091;SDS011;8661;45.700;4.880;2023-03-04T05:57:26;49.67;;;27.53;;
17091;SDS011;8661;45.700;4.880;2023-03-04T05:59:53;44.13;;;26.53;;
17091;SDS011;8661;45.700;4.880;2023-03-04T06:02:20;50.73;;;27.17;;
17091;SDS011;8661;45.700;4.880;2023-03-04T06:04:47;48.37;;;27.00;;
17091;SDS011;8661;45.700;4.880;2023-03-04T06:07:14;47.37;;;27.20;;
17091;SDS011;8661;45.700;4.880;2023-03-04T06:09:41;52.50;;;27.10;;
17091;SDS011;8661;45.700;4.880;2023-03-04T06:12:10;45.03;;;25.50;;
17091;SDS011;8661;45.700;4.880;2023-03-04T06:14:37;49.13;;;27.13;;
17091;SDS011;8661;45.700;4.880;2023-03-04T06:17:04;45.73;;;26.67;;
17091;SDS011;8661;45.700;4.880;2023-03-04T06:19:31;50.80;;;26.33;;
17091;SDS011;8661;45.700;4.880;2023-03-04T06:21:58;45.67;;;26.27;;
17091;SDS011;8661;45.700;4.880;2023-03-04T06:24:25;43.80;;;25.37;;
17091;SDS011;8661;45.700;4.880;2023-03-04T06:26:52;46.17;;;26.97;;
17091;SDS011;8661;45.700;4.880;2023-03-04T06:29:20;50.73;;;27.40;;
17091;SDS011;8661;45.700;4.880;2023-03-04T06:31:47;48.83;;;26.97;;
17091;SDS011;8661;45.700;4.880;2023-03-04T06:34:14;46.13;;;25.37;;
17091;SDS011;8661;45.700;4.880;2023-03-04T06:36:41;47.60;;;25.10;;
17091;SDS011;8661;45.700;4.880;2023-03-04T06:39:08;48.10;;;25.83;;
17091;SDS011;8661;45.700;4.880;2023-03-04T06:41:35;47.77;;;27.47;;
17091;SDS011;8661;45.700;4.880;2023-03-04T06:44:03;49.40;;;26.80;;
17091;SDS011;8661;45.700;4.880;2023-03-04T06:46:33;48.77;;;26.10;;
17091;SDS011;8661;45.700;4.880;2023-03-04T06:49:00;51.17;;;27.33;;
17091;SDS011;8661;45.700;4.880;2023-03-04T06:51:27;48.30;;;27.00;;
17091;SDS011;8661;45.700;4.880;2023-03-04T06:53:54;50.03;;;27.60;;
17091;SDS011;8661;45.700;4.880;2023-03-04T06:56:21;49.53;;;26.43;;
17091;SDS011;8661;45.700;4.880;2023-03-04T06:58:48;43.20;;;26.03;;
17091;SDS011;8661;45.700;4.880;2023-03-04T07:01:19;48.87;;;27.13;;
17091;SDS011;8661;45.700;4.880;2023-03-04T07:03:49;45.67;;;26.53;;
17091;SDS011;8661;45.700;4.880;2023-03-04T07:06:17;47.20;;;27.90;;
17091;SDS011;8661;45.700;4.880;2023-03-04T07:08:46;47.17;;;27.37;;
17091;SDS011;8661;45.700;4.880;2023-03-04T07:11:13;52.27;;;28.10;;
17091;SDS011;8661;45.700;4.880;2023-03-04T07:13:41;50.07;;;26.60;;
17091;SDS011;8661;45.700;4.880;2023-03-04T07:16:09;49.47;;;25.93;;
17091;SDS011;8661;45.700;4.880;2023-03-04T07:18:37;46.23;;;26.53;;
17091;SDS011;8661;45.700;4.880;2023-03-04T07:21:06;50.60;;;28.27;;
17091;SDS011;8661;45.700;4.880;2023-03-04T07:23:34;50.97;;;27.20;;
17091;SDS011;8661;45.700;4.880;2023-03-04T07:26:01;50.63;;;27.93;;
17091;SDS011;8661;45.700;4.880;2023-03-04T07:28:29;49.87;;;28.80;;
17091;SDS011;8661;45.700;4.880;2023-03-04T07:30:56;47.17;;;27.17;;
17091;SDS011;8661;45.700;4.880;2023-03-04T07:33:32;51.50;;;27.93;;
17091;SDS011;8661;45.700;4.880;2023-03-04T07:35:59;53.17;;;28.03;;
17091;SDS011;8661;45.700;4.880;2023-03-04T07:38:27;50.47;;;28.40;;
17091;SDS011;8661;45.700;4.880;2023-03-04T07:40:55;47.07;;;27.23;;
17091;SDS011;8661;45.700;4.880;2023-03-04T07:43:22;55.20;;;28.53;;
17091;SDS011;8661;45.700;4.880;2023-03-04T07:45:49;54.07;;;27.00;;
17091;SDS011;8661;45.700;4.880;2023-03-04T07:48:16;50.37;;;29.07;;
17091;SDS011;8661;45.700;4.880;2023-03-04T07:50:43;52.63;;;28.20;;
17091;SDS011;8661;45.700;4.880;2023-03-04T07:53:10;49.20;;;27.13;;
17091;SDS011;8661;45.700;4.880;2023-03-04T07:55:38;50.57;;;28.13;;
17091;SDS011;8661;45.700;4.880;2023-03-04T07:58:05;48.70;;;28.57;;
17091;SDS011;8661;45.700;4.880;2023-03-04T08:00:32;46.67;;;27.07;;
17091;SDS011;8661;45.700;4.880;2023-03-04T08:02:58;50.23;;;28.20;;
17091;SDS011;8661;45.700;4.880;2023-03-04T08:05:25;55.27;;;28.47;;
17091;SDS011;8661;45.700;4.880;2023-03-04T08:07:52;49.67;;;27.97;;
17091;SDS011;8661;45.700;4.880;2023-03-04T08:10:21;47.93;;;26.97;;
17091;SDS011;8661;45.700;4.880;2023-03-04T08:12:50;50.50;;;28.07;;
17091;SDS011;8661;45.700;4.880;2023-03-04T08:15:16;49.67;;;29.40;;
17091;SDS011;8661;45.700;4.880;2023-03-04T08:17:43;56.40;;;30.50;;
17091;SDS011;8661;45.700;4.880;2023-03-04T08:20:11;54.70;;;29.73;;
17091;SDS011;8661;45.700;4.880;2023-03-04T08:22:38;52.97;;;29.90;;
17091;SDS011;8661;45.700;4.880;2023-03-04T08:25:05;53.60;;;29.93;;
17091;SDS011;8661;45.700;4.880;2023-03-04T08:27:32;52.73;;;29.63;;
17091;SDS011;8661;45.700;4.880;2023-03-04T08:30:04;70.87;;;31.23;;
17091;SDS011;8661;45.700;4.880;2023-03-04T08:32:31;48.40;;;28.23;;
17091;SDS011;8661;45.700;4.880;2023-03-04T08:34:58;57.37;;;31.20;;
17091;SDS011;8661;45.700;4.880;2023-03-04T08:37:26;64.77;;;30.03;;
17091;SDS011;8661;45.700;4.880;2023-03-04T08:39:54;50.50;;;29.70;;
17091;SDS011;8661;45.700;4.880;2023-03-04T08:42:21;52.57;;;29.53;;
17091;SDS011;8661;45.700;4.880;2023-03-04T08:44:48;56.10;;;30.87;;
17091;SDS011;8661;45.700;4.880;2023-03-04T08:47:16;53.10;;;31.43;;
17091;SDS011;8661;45.700;4.880;2023-03-04T08:49:43;53.57;;;28.47;;
17091;SDS011;8661;45.700;4.880;2023-03-04T08:52:10;55.33;;;30.83;;
17091;SDS011;8661;45.700;4.880;2023-03-04T08:54:37;55.70;;;30.97;;
17091;SDS011;8661;45.700;4.880;2023-03-04T08:57:03;49.40;;;28.77;;
17091;SDS011;8661;45.700;4.880;2023-03-04T08:59:31;55.13;;;31.93;;
17091;SDS011;8661;45.700;4.880;2023-03-04T09:01:58;58.30;;;31.43;;
17091;SDS011;8661;45.700;4.880;2023-03-04T09:04:27;52.30;;;30.77;;
17091;SDS011;8661;45.700;4.880;2023-03-04T09:06:53;65.23;;;31.43;;
17091;SDS011;8661;45.700;4.880;2023-03-04T09:09:20;53.47;;;32.03;;
17091;SDS011;8661;45.700;4.880;2023-03-04T09:11:47;55.67;;;31.23;;
17091;SDS011;8661;45.700;4.880;2023-03-04T09:14:14;56.53;;;32.60;;
17091;SDS011;8661;45.700;4.880;2023-03-04T09:16:41;52.83;;;31.27;;
17091;SDS011;8661;45.700;4.880;2023-03-04T09:19:08;53.53;;;31.33;;
17091;SDS011;8661;45.700;4.880;2023-03-04T09:21:36;56.37;;;30.80;;
17091;SDS011;8661;45.700;4.880;2023-03-04T09:24:03;56.40;;;31.73;;
17091;SDS011;8661;45.700;4.880;2023-03-04T09:26:30;59.90;;;31.80;;
17091;SDS011;8661;45.700;4.880;2023-03-04T09:28:58;54.23;;;31.97;;
17091;SDS011;8661;45.700;4.880;2023-03-04T09:31:26;53.93;;;31.63;;
17091;SDS011;8661;45.700;4.880;2023-03-04T09:33:57;55.90;;;31.57;;
17091;SDS011;8661;45.700;4.880;2023-03-04T09:36:24;53.13;;;30.97;;
17091;SDS011;8661;45.700;4.880;2023-03-04T09:38:52;55.77;;;30.10;;
17091;SDS011;8661;45.700;4.880;2023-03-04T09:41:24;57.10;;;31.40;;
17091;SDS011;8661;45.700;4.880;2023-03-04T09:43:56;58.57;;;31.60;;
17091;SDS011;8661;45.700;4.880;2023-03-04T09:46:25;60.47;;;31.67;;
17091;SDS011;8661;45.700;4.880;2023-03-04T09:48:57;56.77;;;33.23;;
17091;SDS011;8661;45.700;4.880;2023-03-04T09:51:30;51.63;;;31.97;;
17091;SDS011;8661;45.700;4.880;2023-03-04T09:54:10;60.90;;;31.47;;
17091;SDS011;8661;45.700;4.880;2023-03-04T09:56:43;59.03;;;31.70;;
17091;SDS011;8661;45.700;4.880;2023-03-04T09:59:14;56.83;;;32.57;;
17091;SDS011;8661;45.700;4.880;2023-03-04T10:01:49;57.47;;;32.40;;
17091;SDS011;8661;45.700;4.880;2023-03-04T10:04:21;55.73;;;31.87;;
17091;SDS011;8661;45.700;4.880;2023-03-04T10:06:58;58.27;;;33.27;;
17091;SDS011;8661;45.700;4.880;2023-03-04T10:09:29;61.10;;;33.83;;
17091;SDS011;8661;45.700;4.880;2023-03-04T10:12:06;58.67;;;33.70;;
17091;SDS011;8661;45.700;4.880;2023-03-04T10:14:37;53.23;;;30.43;;
17091;SDS011;8661;45.700;4.880;2023-03-04T10:17:11;53.27;;;31.03;;
17091;SDS011;8661;45.700;4.880;2023-03-04T10:19:47;58.53;;;31.43;;
17091;SDS011;8661;45.700;4.880;2023-03-04T10:22:21;55.07;;;32.70;;
17091;SDS011;8661;45.700;4.880;2023-03-04T10:24:56;54.90;;;33.00;;
17091;SDS011;8661;45.700;4.880;2023-03-04T10:27:24;52.13;;;31.90;;
17091;SDS011;8661;45.700;4.880;2023-03-04T10:29:54;58.00;;;33.60;;
17091;SDS011;8661;45.700;4.880;2023-03-04T10:32:23;60.87;;;33.27;;
17091;SDS011;8661;45.700;4.880;2023-03-04T10:34:50;56.10;;;32.97;;
17091;SDS011;8661;45.700;4.880;2023-03-04T10:37:17;52.80;;;32.00;;
17091;SDS011;8661;45.700;4.880;2023-03-04T10:39:45;61.13;;;33.43;;
17091;SDS011;8661;45.700;4.880;2023-03-04T10:42:25;56.37;;;33.13;;
17091;SDS011;8661;45.700;4.880;2023-03-04T10:45:01;53.03;;;32.73;;
17091;SDS011;8661;45.700;4.880;2023-03-04T10:47:28;55.83;;;33.10;;
17091;SDS011;8661;45.700;4.880;2023-03-04T10:49:58;55.93;;;32.80;;
17091;SDS011;8661;45.700;4.880;2023-03-04T10:52:27;58.37;;;33.43;;
17091;SDS011;8661;45.700;4.880;2023-03-04T10:54:56;57.30;;;33.13;;
17091;SDS011;8661;45.700;4.880;2023-03-04T10:57:28;56.73;;;35.00;;
17091;SDS011;8661;45.700;4.880;2023-03-04T11:00:00;63.70;;;35.60;;
17091;SDS011;8661;45.700;4.880;2023-03-04T11:02:28;57.40;;;32.97;;
17091;SDS011;8661;45.700;4.880;2023-03-04T11:05:05;58.93;;;33.87;;
17091;SDS011;8661;45.700;4.880;2023-03-04T11:07:42;52.43;;;32.03;;
17091;SDS011;8661;45.700;4.880;2023-03-04T11:10:13;54.97;;;33.17;;
17091;SDS011;8661;45.700;4.880;2023-03-04T11:12:48;58.37;;;33.17;;
17091;SDS011;8661;45.700;4.880;2023-03-04T11:15:16;54.53;;;33.23;;
17091;SDS011;8661;45.700;4.880;2023-03-04T11:17:49;57.47;;;33.87;;
17091;SDS011;8661;45.700;4.880;2023-03-04T11:20:22;53.43;;;33.53;;
17091;SDS011;8661;45.700;4.880;2023-03-04T11:22:54;56.43;;;33.70;;
17091;SDS011;8661;45.700;4.880;2023-03-04T11:25:26;50.90;;;32.17;;
17091;SDS011;8661;45.700;4.880;2023-03-04T11:27:57;54.60;;;32.67;;
17091;SDS011;8661;45.700;4.880;2023-03-04T11:30:34;53.73;;;33.33;;
17091;SDS011;8661;45.700;4.880;2023-03-04T11:33:12;55.50;;;33.10;;
17091;SDS011;8661;45.700;4.880;2023-03-04T11:35:53;54.90;;;32.77;;
17091;SDS011;8661;45.700;4.880;2023-03-04T11:38:31;52.33;;;32.23;;
17091;SDS011;8661;45.700;4.880;2023-03-04T11:41:02;57.70;;;34.67;;
17091;SDS011;8661;45.700;4.880;2023-03-04T11:43:37;50.37;;;32.67;;
17091;SDS011;8661;45.700;4.880;2023-03-04T11:46:08;53.03;;;33.13;;
17091;SDS011;8661;45.700;4.880;2023-03-04T11:49:10;54.77;;;32.83;;
17091;SDS011;8661;45.700;4.880;2023-03-04T11:51:52;53.57;;;32.80;;
17091;SDS011;8661;45.700;4.880;2023-03-04T11:54:28;47.63;;;31.37;;
17091;SDS011;8661;45.700;4.880;2023-03-04T11:57:02;53.37;;;32.73;;
17091;SDS011;8661;45.700;4.880;2023-03-04T12:02:28;54.20;;;32.50;;
17091;SDS011;8661;45.700;4.880;2023-03-04T12:07:53;53.60;;;32.77;;
17091;SDS011;8661;45.700;4.880;2023-03-04T12:10:40;54.73;;;32.73;;
17091;SDS011;8661;45.700;4.880;2023-03-04T12:13:29;51.80;;;31.73;;
17091;SDS011;8661;45.700;4.880;2023-03-04T12:16:13;52.40;;;31.03;;
17091;SDS011;8661;45.700;4.880;2023-03-04T12:18:53;53.63;;;32.47;;
17091;SDS011;8661;45.700;4.880;2023-03-04T12:21:35;50.83;;;32.03;;
17091;SDS011;8661;45.700;4.880;2023-03-04T12:24:24;49.03;;;33.30;;
17091;SDS011;8661;45.700;4.880;2023-03-04T12:27:04;57.07;;;32.60;;
17091;SDS011;8661;45.700;4.880;2023-03-04T12:29:42;53.73;;;33.13;;
17091;SDS011;8661;45.700;4.880;2023-03-04T12:32:16;63.57;;;34.10;;
17091;SDS011;8661;45.700;4.880;2023-03-04T12:34:54;56.63;;;31.60;;
17091;SDS011;8661;45.700;4.880;2023-03-04T12:37:47;46.83;;;30.17;;
17091;SDS011;8661;45.700;4.880;2023-03-04T12:40:37;47.43;;;29.97;;
17091;SDS011;8661;45.700;4.880;2023-03-04T12:43:15;49.83;;;28.50;;
17091;SDS011;8661;45.700;4.880;2023-03-04T12:45:54;46.90;;;27.70;;
17091;SDS011;8661;45.700;4.880;2023-03-04T12:48:31;45.50;;;28.27;;
17091;SDS011;8661;45.700;4.880;2023-03-04T12:51:06;44.73;;;28.57;;
17091;SDS011;8661;45.700;4.880;2023-03-04T12:53:42;47.67;;;28.47;;
17091;SDS011;8661;45.700;4.880;2023-03-04T12:56:21;43.97;;;28.97;;
17091;SDS011;8661;45.700;4.880;2023-03-04T12:58:51;45.23;;;27.87;;
17091;SDS011;8661;45.700;4.880;2023-03-04T13:01:21;44.00;;;27.93;;
17091;SDS011;8661;45.700;4.880;2023-03-04T13:03:55;44.27;;;27.63;;
17091;SDS011;8661;45.700;4.880;2023-03-04T13:06:28;45.40;;;27.07;;
17091;SDS011;8661;45.700;4.880;2023-03-04T13:09:05;42.27;;;25.90;;
17091;SDS011;8661;45.700;4.880;2023-03-04T13:11:41;42.57;;;26.00;;
17091;SDS011;8661;45.700;4.880;2023-03-04T13:14:25;44.43;;;26.37;;
17091;SDS011;8661;45.700;4.880;2023-03-04T13:16:57;40.17;;;25.77;;
17091;SDS011;8661;45.700;4.880;2023-03-04T13:19:46;40.20;;;25.00;;
17091;SDS011;8661;45.700;4.880;2023-03-04T13:25:30;38.43;;;22.93;;
17091;SDS011;8661;45.700;4.880;2023-03-04T13:28:05;36.30;;;22.73;;
17091;SDS011;8661;45.700;4.880;2023-03-04T13:33:53;34.40;;;22.90;;
17091;SDS011;8661;45.700;4.880;2023-03-04T13:36:37;38.20;;;23.57;;
17091;SDS011;8661;45.700;4.880;2023-03-04T13:39:22;37.43;;;23.20;;
17091;SDS011;8661;45.700;4.880;2023-03-04T13:41:54;39.83;;;22.73;;
17091;SDS011;8661;45.700;4.880;2023-03-04T13:44:36;36.57;;;21.47;;
17091;SDS011;8661;45.700;4.880;2023-03-04T13:47:25;37.83;;;22.93;;
17091;SDS011;8661;45.700;4.880;2023-03-04T13:50:20;38.77;;;22.33;;
17091;SDS011;8661;45.700;4.880;2023-03-04T13:53:29;38.80;;;22.27;;
17091;SDS011;8661;45.700;4.880;2023-03-04T13:56:11;34.00;;;21.37;;
17091;SDS011;8661;45.700;4.880;2023-03-04T13:59:00;36.17;;;21.70;;
17091;SDS011;8661;45.700;4.880;2023-03-04T14:01:47;40.27;;;22.80;;
17091;SDS011;8661;45.700;4.880;2023-03-04T14:04:22;35.30;;;21.90;;
17091;SDS011;8661;45.700;4.880;2023-03-04T14:06:52;38.80;;;22.77;;
17091;SDS011;8661;45.700;4.880;2023-03-04T14:09:24;35.03;;;22.80;;
17091;SDS011;8661;45.700;4.880;2023-03-04T14:11:52;32.57;;;19.40;;
17091;SDS011;8661;45.700;4.880;2023-03-04T14:14:23;33.10;;;19.47;;
17091;SDS011;8661;45.700;4.880;2023-03-04T14:16:52;34.77;;;20.60;;
17091;SDS011;8661;45.700;4.880;2023-03-04T14:19:22;32.30;;;20.37;;
17091;SDS011;8661;45.700;4.880;2023-03-04T14:21:52;31.40;;;18.80;;
17091;SDS011;8661;45.700;4.880;2023-03-04T14:24:19;28.17;;;17.67;;
17091;SDS011;8661;45.700;4.880;2023-03-04T14:26:48;27.50;;;16.67;;
17091;SDS011;8661;45.700;4.880;2023-03-04T14:29:19;30.23;;;17.83;;
17091;SDS011;8661;45.700;4.880;2023-03-04T14:31:48;26.60;;;16.87;;
17091;SDS011;8661;45.700;4.880;2023-03-04T14:34:16;25.07;;;16.43;;
17091;SDS011;8661;45.700;4.880;2023-03-04T14:36:51;25.90;;;17.00;;
17091;SDS011;8661;45.700;4.880;2023-03-04T14:39:18;26.57;;;16.87;;
17091;SDS011;8661;45.700;4.880;2023-03-04T14:41:49;29.00;;;17.17;;
17091;SDS011;8661;45.700;4.880;2023-03-04T14:44:21;31.67;;;17.30;;
17091;SDS011;8661;45.700;4.880;2023-03-04T14:47:00;27.27;;;15.77;;
17091;SDS011;8661;45.700;4.880;2023-03-04T14:49:33;22.40;;;14.93;;
17091;SDS011;8661;45.700;4.880;2023-03-04T14:52:01;27.97;;;15.40;;
17091;SDS011;8661;45.700;4.880;2023-03-04T14:54:29;29.40;;;16.23;;
17091;SDS011;8661;45.700;4.880;2023-03-04T14:57:00;27.23;;;17.30;;
17091;SDS011;8661;45.700;4.880;2023-03-04T14:59:45;30.93;;;15.67;;
17091;SDS011;8661;45.700;4.880;2023-03-04T15:02:17;27.73;;;16.03;;
17091;SDS011;8661;45.700;4.880;2023-03-04T15:04:55;26.67;;;15.40;;